Havana, Minnesota
Current Conditions -  °F | °C
As of 11:55 PM on Thursday 27 Nov 2014 (Local Time) from KOWA Reporting Station
Light Snow Light Snow  
Wind Chill: -6°   Ceiling: 1000
Heat Index:   Visibility: 1.2mi
Dew Point:   Wind: 10mph
Humidity: 79%   Direction: 120°ESE
Pressure: 30.23"   Gusts: NA
Location:  44.0575°N, 93.2082°W
Report Text: KOWA 280555Z AUTO 12009KT 1 1/4SM -SN OVC010 M13/M16 A3023 RMK AO2
Loading
Personal Weather Stations






























Interactive Weather Map New forecast layout! Learn more

10-Day Weather Forecast

Advertisements
Track Severe Weather on mobile